Time,TemperatureF,DewpointF,PressureIn,WindDirection,WindDirectionDegrees,WindSpeedMPH,WindSpeedGustMPH,Humidity,HourlyPrecipIn,Conditions,Clouds,dailyrainin,SolarRadiationWatts/m^2,SoftwareType,DateUTC
2013-08-09 00:02:00,50.0,38.0,-100.00,West,260,2.0,6.0,63,0.00,,,0.00,0.000000,,2013-08-09 08:02:00,
2013-08-09 00:12:00,50.0,38.0,-100.00,West,260,2.0,6.0,63,0.00,,,0.00,0.000000,,2013-08-09 08:12:00,
2013-08-09 00:21:00,50.0,38.0,-100.00,West,260,2.0,6.0,63,0.00,,,0.00,0.000000,,2013-08-09 08:21:00,
2013-08-09 00:32:00,50.0,38.0,-100.00,West,260,2.0,6.0,63,0.00,,,0.00,0.000000,,2013-08-09 08:32:00,
2013-08-09 00:53:00,50.0,39.0,-100.00,West,269,3.0,7.0,65,0.00,,,0.00,0.000000,,2013-08-09 08:53:00,
2013-08-09 01:02:00,50.0,39.0,-100.00,West,269,3.0,7.0,65,0.00,,,0.00,0.000000,,2013-08-09 09:02:00,
2013-08-09 01:12:00,50.0,39.0,-100.00,West,269,3.0,7.0,65,0.00,,,0.00,0.000000,,2013-08-09 09:12:00,
2013-08-09 01:22:00,50.0,39.0,-100.00,West,269,3.0,7.0,65,0.00,,,0.00,0.000000,,2013-08-09 09:22:00,
2013-08-09 01:32:00,50.0,39.0,-100.00,West,269,3.0,7.0,65,0.00,,,0.00,0.000000,,2013-08-09 09:32:00,
2013-08-09 02:01:00,49.0,37.0,-100.00,NW,322,2.0,5.0,63,0.00,,,0.00,0.000000,,2013-08-09 10:01:00,
2013-08-09 02:12:00,49.0,37.0,-100.00,NW,322,2.0,5.0,63,0.00,,,0.00,0.000000,,2013-08-09 10:12:00,
2013-08-09 02:22:00,49.0,37.0,-100.00,NW,322,2.0,5.0,63,0.00,,,0.00,0.000000,,2013-08-09 10:22:00,
2013-08-09 02:32:00,49.0,37.0,-100.00,NW,322,2.0,5.0,63,0.00,,,0.00,0.000000,,2013-08-09 10:32:00,
2013-08-09 02:33:00,49.0,39.0,-100.00,West,274,2.0,6.0,69,0.00,,,-99.99,0.000000,,2013-08-09 10:33:00,
2013-08-09 03:01:00,49.0,39.0,-100.00,West,274,2.0,6.0,69,0.00,,,-99.99,0.000000,,2013-08-09 11:01:00,
2013-08-09 03:11:00,49.0,39.0,-100.00,West,274,2.0,6.0,69,0.00,,,-99.99,0.000000,,2013-08-09 11:11:00,
2013-08-09 03:22:00,49.0,39.0,-100.00,West,274,2.0,6.0,69,0.00,,,-99.99,0.000000,,2013-08-09 11:22:00,
2013-08-09 04:02:00,49.0,39.0,-100.00,WNW,301,4.0,7.0,69,0.00,,,0.00,0.000000,,2013-08-09 12:02:00,
2013-08-09 04:12:00,49.0,39.0,-100.00,WNW,301,4.0,7.0,69,0.00,,,0.00,0.000000,,2013-08-09 12:12:00,
2013-08-09 04:22:00,49.0,39.0,-100.00,WNW,301,4.0,7.0,69,0.00,,,0.00,0.000000,,2013-08-09 12:22:00,
2013-08-09 04:32:00,49.0,39.0,-100.00,WNW,301,4.0,7.0,69,0.00,,,0.00,0.000000,,2013-08-09 12:32:00,
2013-08-09 05:01:00,48.0,38.0,-100.00,NNW,333,3.0,6.0,69,0.00,,,0.00,0.000000,,2013-08-09 13:01:00,
2013-08-09 05:12:00,48.0,38.0,-100.00,NNW,333,3.0,6.0,69,0.00,,,0.00,0.000000,,2013-08-09 13:12:00,
2013-08-09 05:23:00,48.0,38.0,-100.00,NNW,333,3.0,6.0,69,0.00,,,0.00,0.000000,,2013-08-09 13:23:00,
2013-08-09 05:32:00,48.0,38.0,-100.00,NNW,333,3.0,6.0,69,0.00,,,0.00,0.000000,,2013-08-09 13:32:00,
2013-08-09 05:33:00,48.0,38.0,-100.00,NW,318,2.0,4.0,69,0.00,,,0.00,0.000000,,2013-08-09 13:33:00,
2013-08-09 06:02:00,48.0,38.0,-100.00,NW,318,2.0,4.0,69,0.00,,,0.00,0.000000,,2013-08-09 14:02:00,
2013-08-09 06:11:00,48.0,38.0,-100.00,NW,318,2.0,4.0,69,0.00,,,0.00,0.000000,,2013-08-09 14:11:00,
2013-08-09 06:22:00,48.0,38.0,-100.00,NW,318,2.0,4.0,69,0.00,,,0.00,0.000000,,2013-08-09 14:22:00,
2013-08-09 06:53:00,48.0,37.0,-100.00,North,11,4.0,6.0,66,0.00,,,0.00,1.000000,,2013-08-09 14:53:00,
2013-08-09 07:01:00,48.0,37.0,-100.00,North,11,4.0,6.0,66,0.00,,,0.00,1.000000,,2013-08-09 15:01:00,
2013-08-09 07:11:00,48.0,37.0,-100.00,North,11,4.0,6.0,66,0.00,,,0.00,1.000000,,2013-08-09 15:11:00,
2013-08-09 07:22:00,48.0,37.0,-100.00,North,11,4.0,6.0,66,0.00,,,0.00,1.000000,,2013-08-09 15:22:00,
2013-08-09 07:32:00,48.0,37.0,-100.00,North,11,4.0,6.0,66,0.00,,,0.00,1.000000,,2013-08-09 15:32:00,
2013-08-09 08:01:00,49.0,37.0,-100.00,North,4,3.0,6.0,62,0.00,,,0.00,15.000000,,2013-08-09 16:01:00,
2013-08-09 08:11:00,49.0,37.0,-100.00,North,4,3.0,6.0,62,0.00,,,0.00,15.000000,,2013-08-09 16:11:00,
2013-08-09 08:22:00,49.0,37.0,-100.00,North,4,3.0,6.0,62,0.00,,,0.00,15.000000,,2013-08-09 16:22:00,
2013-08-09 08:32:00,49.0,37.0,-100.00,North,4,3.0,6.0,62,0.00,,,0.00,15.000000,,2013-08-09 16:32:00,
2013-08-09 08:53:00,48.0,37.0,-100.00,NNW,340,2.0,4.0,66,0.00,,,0.00,22.000000,,2013-08-09 16:53:00,
2013-08-09 09:02:00,48.0,37.0,-100.00,NNW,340,2.0,4.0,66,0.00,,,0.00,22.000000,,2013-08-09 17:02:00,
2013-08-09 09:11:00,48.0,37.0,-100.00,NNW,340,2.0,4.0,66,0.00,,,0.00,22.000000,,2013-08-09 17:11:00,
2013-08-09 09:22:00,48.0,37.0,-100.00,NNW,340,2.0,4.0,66,0.00,,,0.00,22.000000,,2013-08-09 17:22:00,
2013-08-09 09:32:00,48.0,37.0,-100.00,NNW,340,2.0,4.0,66,0.00,,,0.00,22.000000,,2013-08-09 17:32:00,
2013-08-09 10:01:00,47.0,40.0,-100.00,NE,35,2.0,5.0,76,0.02,,,0.02,67.000000,,2013-08-09 18:01:00,
2013-08-09 10:11:00,47.0,40.0,-100.00,NE,35,2.0,5.0,76,0.02,,,0.02,67.000000,,2013-08-09 18:11:00,
2013-08-09 10:22:00,47.0,40.0,-100.00,NE,35,2.0,5.0,76,0.02,,,0.02,67.000000,,2013-08-09 18:22:00,
2013-08-09 10:32:00,47.0,40.0,-100.00,NE,35,2.0,5.0,76,0.02,,,0.02,67.000000,,2013-08-09 18:32:00,
2013-08-09 11:02:00,46.0,41.0,-100.00,North,355,3.0,8.0,81,0.00,,,0.02,98.000000,,2013-08-09 19:02:00,
2013-08-09 11:11:00,46.0,41.0,-100.00,North,355,3.0,8.0,81,0.00,,,0.02,98.000000,,2013-08-09 19:11:00,
2013-08-09 11:22:00,46.0,41.0,-100.00,North,355,3.0,8.0,81,0.00,,,0.02,98.000000,,2013-08-09 19:22:00,
2013-08-09 11:32:00,46.0,41.0,-100.00,North,355,3.0,8.0,81,0.00,,,0.02,98.000000,,2013-08-09 19:32:00,
2013-08-09 12:02:00,46.0,41.0,-100.00,NNW,332,6.0,9.0,83,-99.99,,,0.00,58.000000,,2013-08-09 20:02:00,
2013-08-09 12:11:00,46.0,41.0,-100.00,NNW,332,6.0,9.0,83,-99.99,,,0.00,58.000000,,2013-08-09 20:11:00,
2013-08-09 12:22:00,46.0,41.0,-100.00,NNW,332,6.0,9.0,83,-99.99,,,0.00,58.000000,,2013-08-09 20:22:00,
2013-08-09 12:32:00,46.0,41.0,-100.00,NNW,332,6.0,9.0,83,-99.99,,,0.00,58.000000,,2013-08-09 20:32:00,
2013-08-09 13:01:00,46.0,40.0,-100.00,NW,322,5.0,10.0,80,0.00,,,0.00,99.000000,,2013-08-09 21:01:00,
2013-08-09 13:12:00,46.0,40.0,-100.00,NW,322,5.0,10.0,80,0.00,,,0.00,99.000000,,2013-08-09 21:12:00,
2013-08-09 13:22:00,46.0,40.0,-100.00,NW,322,5.0,10.0,80,0.00,,,0.00,99.000000,,2013-08-09 21:22:00,
2013-08-09 13:32:00,46.0,40.0,-100.00,NW,322,5.0,10.0,80,0.00,,,0.00,99.000000,,2013-08-09 21:32:00,
2013-08-09 14:01:00,47.0,38.0,-100.00,NW,304,4.0,9.0,70,0.00,,,0.00,143.000000,,2013-08-09 22:01:00,
2013-08-09 14:11:00,47.0,38.0,-100.00,NW,304,4.0,9.0,70,0.00,,,0.00,143.000000,,2013-08-09 22:11:00,
2013-08-09 14:22:00,47.0,38.0,-100.00,NW,304,4.0,9.0,70,0.00,,,0.00,143.000000,,2013-08-09 22:22:00,
2013-08-09 14:32:00,47.0,38.0,-100.00,NW,304,4.0,9.0,70,0.00,,,0.00,143.000000,,2013-08-09 22:32:00,
2013-08-09 15:01:00,48.0,39.0,-100.00,North,359,4.0,8.0,72,0.00,,,0.00,134.000000,,2013-08-09 23:01:00,
2013-08-09 15:11:00,48.0,39.0,-100.00,North,359,4.0,8.0,72,0.00,,,0.00,134.000000,,2013-08-09 23:11:00,
2013-08-09 15:21:00,48.0,39.0,-100.00,North,359,4.0,8.0,72,0.00,,,0.00,134.000000,,2013-08-09 23:21:00,
2013-08-09 15:32:00,48.0,39.0,-100.00,North,359,4.0,8.0,72,0.00,,,0.00,134.000000,,2013-08-09 23:32:00,
2013-08-09 16:01:00,48.0,39.0,-100.00,NNE,14,2.0,7.0,71,0.01,,,0.01,111.000000,,2013-08-10 00:01:00,
2013-08-09 16:11:00,48.0,39.0,-100.00,NNE,14,2.0,7.0,71,0.01,,,0.01,111.000000,,2013-08-10 00:11:00,
2013-08-09 16:22:00,48.0,39.0,-100.00,NNE,14,2.0,7.0,71,0.01,,,0.01,111.000000,,2013-08-10 00:22:00,
2013-08-09 16:32:00,48.0,39.0,-100.00,NNE,14,2.0,7.0,71,0.01,,,0.01,111.000000,,2013-08-10 00:32:00,
2013-08-09 17:01:00,47.0,39.0,-100.00,North,3,2.0,6.0,75,0.04,,,0.05,97.000000,,2013-08-10 01:01:00,
2013-08-09 17:11:00,47.0,39.0,-100.00,North,3,2.0,6.0,75,0.04,,,0.05,97.000000,,2013-08-10 01:11:00,
2013-08-09 17:21:00,47.0,39.0,-100.00,North,3,2.0,6.0,75,0.04,,,0.05,97.000000,,2013-08-10 01:21:00,
2013-08-09 17:32:00,47.0,39.0,-100.00,North,3,2.0,6.0,75,0.04,,,0.05,97.000000,,2013-08-10 01:32:00,
2013-08-09 17:52:00,46.0,43.0,-100.00,WNW,290,3.0,6.0,89,-99.99,,,0.02,89.000000,,2013-08-10 01:52:00,
2013-08-09 18:03:00,46.0,43.0,-100.00,WNW,290,3.0,6.0,89,-99.99,,,0.02,89.000000,,2013-08-10 02:03:00,
2013-08-09 18:11:00,46.0,43.0,-100.00,WNW,290,3.0,6.0,89,-99.99,,,0.02,89.000000,,2013-08-10 02:11:00,
2013-08-09 18:21:00,46.0,43.0,-100.00,WNW,290,3.0,6.0,89,-99.99,,,0.02,89.000000,,2013-08-10 02:21:00,
2013-08-09 18:31:00,46.0,43.0,-100.00,WNW,290,3.0,6.0,89,-99.99,,,0.02,89.000000,,2013-08-10 02:31:00,
2013-08-09 18:52:00,45.0,41.0,-100.00,NNW,336,4.0,6.0,85,0.02,,,0.04,40.000000,,2013-08-10 02:52:00,
2013-08-09 19:01:00,45.0,41.0,-100.00,NNW,336,4.0,6.0,85,0.02,,,0.04,40.000000,,2013-08-10 03:01:00,
2013-08-09 19:11:00,45.0,41.0,-100.00,NNW,336,4.0,6.0,85,0.02,,,0.04,40.000000,,2013-08-10 03:11:00,
2013-08-09 19:21:00,45.0,41.0,-100.00,NNW,336,4.0,6.0,85,0.02,,,0.04,40.000000,,2013-08-10 03:21:00,
2013-08-09 19:32:00,45.0,41.0,-100.00,NNW,336,4.0,6.0,85,0.02,,,0.04,40.000000,,2013-08-10 03:32:00,
2013-08-09 19:52:00,44.0,42.0,-100.00,NNW,329,4.0,8.0,92,0.06,,,0.10,22.000000,,2013-08-10 03:52:00,
2013-08-09 20:01:00,44.0,42.0,-100.00,NNW,329,4.0,8.0,92,0.06,,,0.10,22.000000,,2013-08-10 04:01:00,
2013-08-09 20:12:00,44.0,42.0,-100.00,NNW,329,4.0,8.0,92,0.06,,,0.10,22.000000,,2013-08-10 04:12:00,
2013-08-09 20:22:00,44.0,42.0,-100.00,NNW,329,4.0,8.0,92,0.06,,,0.10,22.000000,,2013-08-10 04:22:00,
2013-08-09 20:32:00,44.0,42.0,-100.00,NNW,329,4.0,8.0,92,0.06,,,0.10,22.000000,,2013-08-10 04:32:00,
2013-08-09 20:53:00,44.0,41.0,-100.00,NNW,344,3.0,9.0,90,-99.99,,,0.03,18.000000,,2013-08-10 04:53:00,
2013-08-09 21:02:00,44.0,41.0,-100.00,NNW,344,3.0,9.0,90,-99.99,,,0.03,18.000000,,2013-08-10 05:02:00,
2013-08-09 21:11:00,44.0,41.0,-100.00,NNW,344,3.0,9.0,90,-99.99,,,0.03,18.000000,,2013-08-10 05:11:00,
2013-08-09 21:21:00,44.0,41.0,-100.00,NNW,344,3.0,9.0,90,-99.99,,,0.03,18.000000,,2013-08-10 05:21:00,
2013-08-09 21:32:00,44.0,41.0,-100.00,NNW,344,3.0,9.0,90,-99.99,,,0.03,18.000000,,2013-08-10 05:32:00,
2013-08-09 22:02:00,45.0,41.0,-100.00,NW,313,4.0,8.0,85,-99.99,,,0.00,6.000000,,2013-08-10 06:02:00,
2013-08-09 22:11:00,45.0,41.0,-100.00,NW,313,4.0,8.0,85,-99.99,,,0.00,6.000000,,2013-08-10 06:11:00,
2013-08-09 22:22:00,45.0,41.0,-100.00,NW,313,4.0,8.0,85,-99.99,,,0.00,6.000000,,2013-08-10 06:22:00,
2013-08-09 22:32:00,45.0,41.0,-100.00,NW,313,4.0,8.0,85,-99.99,,,0.00,6.000000,,2013-08-10 06:32:00,
2013-08-09 22:33:00,44.0,41.0,-100.00,North,4,2.0,6.0,90,0.00,,,0.00,1.000000,,2013-08-10 06:33:00,
2013-08-09 23:02:00,44.0,41.0,-100.00,North,4,2.0,6.0,90,0.00,,,0.00,1.000000,,2013-08-10 07:02:00,
2013-08-09 23:12:00,44.0,41.0,-100.00,North,4,2.0,6.0,90,0.00,,,0.00,1.000000,,2013-08-10 07:12:00,
2013-08-09 23:22:00,44.0,41.0,-100.00,North,4,2.0,6.0,90,0.00,,,0.00,1.000000,,2013-08-10 07:22:00,